sensor_id;sensor_type;location;lat;lon;timestamp;P1;durP1;ratioP1;P2;durP2;ratioP2
7051;SDS011;3567;52.444;13.556;2023-03-12T00:02:02;5.32;;;1.00;;
7051;SDS011;3567;52.444;13.556;2023-03-12T00:04:28;5.70;;;1.25;;
7051;SDS011;3567;52.444;13.556;2023-03-12T00:06:53;9.35;;;1.30;;
7051;SDS011;3567;52.444;13.556;2023-03-12T00:09:19;6.50;;;1.42;;
7051;SDS011;3567;52.444;13.556;2023-03-12T00:11:44;4.15;;;1.70;;
7051;SDS011;3567;52.444;13.556;2023-03-12T00:14:09;6.03;;;1.17;;
7051;SDS011;3567;52.444;13.556;2023-03-12T00:16:35;4.38;;;1.02;;
7051;SDS011;3567;52.444;13.556;2023-03-12T00:19:00;4.35;;;1.10;;
7051;SDS011;3567;52.444;13.556;2023-03-12T00:21:26;2.67;;;1.02;;
7051;SDS011;3567;52.444;13.556;2023-03-12T00:23:52;5.00;;;1.13;;
7051;SDS011;3567;52.444;13.556;2023-03-12T00:26:18;6.50;;;1.13;;
7051;SDS011;3567;52.444;13.556;2023-03-12T00:28:46;5.80;;;1.10;;
7051;SDS011;3567;52.444;13.556;2023-03-12T00:33:40;3.55;;;1.35;;
7051;SDS011;3567;52.444;13.556;2023-03-12T00:36:06;7.07;;;1.30;;
7051;SDS011;3567;52.444;13.556;2023-03-12T00:38:31;2.70;;;1.17;;
7051;SDS011;3567;52.444;13.556;2023-03-12T00:40:57;3.63;;;0.80;;
7051;SDS011;3567;52.444;13.556;2023-03-12T00:43:22;3.75;;;0.93;;
7051;SDS011;3567;52.444;13.556;2023-03-12T00:45:47;3.80;;;1.33;;
7051;SDS011;3567;52.444;13.556;2023-03-12T00:48:13;2.78;;;1.17;;
7051;SDS011;3567;52.444;13.556;2023-03-12T00:50:38;4.03;;;1.10;;
7051;SDS011;3567;52.444;13.556;2023-03-12T00:53:03;3.63;;;0.90;;
7051;SDS011;3567;52.444;13.556;2023-03-12T00:55:29;7.95;;;0.90;;
7051;SDS011;3567;52.444;13.556;2023-03-12T00:57:54;5.13;;;1.13;;
7051;SDS011;3567;52.444;13.556;2023-03-12T01:00:20;8.75;;;1.52;;
7051;SDS011;3567;52.444;13.556;2023-03-12T01:02:45;3.80;;;0.90;;
7051;SDS011;3567;52.444;13.556;2023-03-12T01:05:11;1.70;;;0.75;;
7051;SDS011;3567;52.444;13.556;2023-03-12T01:07:37;3.83;;;0.60;;
7051;SDS011;3567;52.444;13.556;2023-03-12T01:10:03;1.77;;;1.00;;
7051;SDS011;3567;52.444;13.556;2023-03-12T01:12:29;1.85;;;1.00;;
7051;SDS011;3567;52.444;13.556;2023-03-12T01:14:55;3.40;;;1.00;;
7051;SDS011;3567;52.444;13.556;2023-03-12T01:17:20;5.88;;;0.70;;
7051;SDS011;3567;52.444;13.556;2023-03-12T01:19:45;7.60;;;1.75;;
7051;SDS011;3567;52.444;13.556;2023-03-12T01:22:11;5.97;;;1.17;;
7051;SDS011;3567;52.444;13.556;2023-03-12T01:24:38;4.53;;;1.02;;
7051;SDS011;3567;52.444;13.556;2023-03-12T01:27:03;3.75;;;0.95;;
7051;SDS011;3567;52.444;13.556;2023-03-12T01:29:29;3.30;;;0.90;;
7051;SDS011;3567;52.444;13.556;2023-03-12T01:31:54;4.93;;;1.10;;
7051;SDS011;3567;52.444;13.556;2023-03-12T01:34:19;3.92;;;1.20;;
7051;SDS011;3567;52.444;13.556;2023-03-12T01:36:45;4.57;;;0.82;;
7051;SDS011;3567;52.444;13.556;2023-03-12T01:39:12;1.77;;;0.80;;
7051;SDS011;3567;52.444;13.556;2023-03-12T01:41:38;4.07;;;1.45;;
7051;SDS011;3567;52.444;13.556;2023-03-12T01:44:04;3.63;;;1.42;;
7051;SDS011;3567;52.444;13.556;2023-03-12T01:51:41;6.72;;;1.10;;
7051;SDS011;3567;52.444;13.556;2023-03-12T01:54:29;7.20;;;0.93;;
7051;SDS011;3567;52.444;13.556;2023-03-12T01:56:59;6.03;;;1.20;;
7051;SDS011;3567;52.444;13.556;2023-03-12T01:59:28;1.08;;;0.95;;
7051;SDS011;3567;52.444;13.556;2023-03-12T02:01:57;6.35;;;0.93;;
7051;SDS011;3567;52.444;13.556;2023-03-12T02:04:23;1.35;;;0.90;;
7051;SDS011;3567;52.444;13.556;2023-03-12T02:06:57;9.55;;;1.75;;
7051;SDS011;3567;52.444;13.556;2023-03-12T02:09:28;3.25;;;1.38;;
7051;SDS011;3567;52.444;13.556;2023-03-12T02:11:58;2.70;;;1.25;;
7051;SDS011;3567;52.444;13.556;2023-03-12T02:14:24;1.98;;;0.90;;
7051;SDS011;3567;52.444;13.556;2023-03-12T02:16:50;2.00;;;0.80;;
7051;SDS011;3567;52.444;13.556;2023-03-12T02:22:20;1.80;;;1.10;;
7051;SDS011;3567;52.444;13.556;2023-03-12T02:27:15;3.10;;;1.10;;
7051;SDS011;3567;52.444;13.556;2023-03-12T02:29:42;5.20;;;1.20;;
7051;SDS011;3567;52.444;13.556;2023-03-12T02:32:09;2.03;;;1.00;;
7051;SDS011;3567;52.444;13.556;2023-03-12T02:34:41;3.67;;;1.15;;
7051;SDS011;3567;52.444;13.556;2023-03-12T02:37:07;4.13;;;1.27;;
7051;SDS011;3567;52.444;13.556;2023-03-12T02:39:32;3.85;;;1.00;;
7051;SDS011;3567;52.444;13.556;2023-03-12T02:41:58;2.40;;;1.10;;
7051;SDS011;3567;52.444;13.556;2023-03-12T02:44:29;2.58;;;1.00;;
7051;SDS011;3567;52.444;13.556;2023-03-12T02:46:57;4.25;;;1.13;;
7051;SDS011;3567;52.444;13.556;2023-03-12T02:49:26;2.95;;;1.17;;
7051;SDS011;3567;52.444;13.556;2023-03-12T02:51:53;2.85;;;1.05;;
7051;SDS011;3567;52.444;13.556;2023-03-12T02:54:19;5.72;;;1.27;;
7051;SDS011;3567;52.444;13.556;2023-03-12T02:56:45;6.38;;;1.30;;
7051;SDS011;3567;52.444;13.556;2023-03-12T02:59:12;5.70;;;1.50;;
7051;SDS011;3567;52.444;13.556;2023-03-12T03:01:38;6.05;;;1.40;;
7051;SDS011;3567;52.444;13.556;2023-03-12T03:04:05;3.65;;;1.13;;
7051;SDS011;3567;52.444;13.556;2023-03-12T03:06:31;3.67;;;1.13;;
7051;SDS011;3567;52.444;13.556;2023-03-12T03:08:59;1.83;;;1.27;;
7051;SDS011;3567;52.444;13.556;2023-03-12T03:11:24;6.57;;;1.65;;
7051;SDS011;3567;52.444;13.556;2023-03-12T03:13:51;2.92;;;1.20;;
7051;SDS011;3567;52.444;13.556;2023-03-12T03:16:17;4.80;;;1.73;;
7051;SDS011;3567;52.444;13.556;2023-03-12T03:18:42;3.00;;;1.42;;
7051;SDS011;3567;52.444;13.556;2023-03-12T03:21:08;2.80;;;1.13;;
7051;SDS011;3567;52.444;13.556;2023-03-12T03:23:35;2.13;;;1.63;;
7051;SDS011;3567;52.444;13.556;2023-03-12T03:26:00;2.25;;;1.30;;
7051;SDS011;3567;52.444;13.556;2023-03-12T03:28:27;7.95;;;1.80;;
7051;SDS011;3567;52.444;13.556;2023-03-12T03:30:54;3.88;;;1.33;;
7051;SDS011;3567;52.444;13.556;2023-03-12T03:33:28;3.75;;;2.33;;
7051;SDS011;3567;52.444;13.556;2023-03-12T03:35:55;5.47;;;1.65;;
7051;SDS011;3567;52.444;13.556;2023-03-12T03:38:23;5.63;;;1.20;;
7051;SDS011;3567;52.444;13.556;2023-03-12T03:40:50;5.07;;;1.35;;
7051;SDS011;3567;52.444;13.556;2023-03-12T03:43:16;4.28;;;1.60;;
7051;SDS011;3567;52.444;13.556;2023-03-12T03:45:42;4.30;;;1.10;;
7051;SDS011;3567;52.444;13.556;2023-03-12T03:48:09;7.47;;;1.67;;
7051;SDS011;3567;52.444;13.556;2023-03-12T03:50:36;2.80;;;1.80;;
7051;SDS011;3567;52.444;13.556;2023-03-12T03:53:02;1.42;;;1.05;;
7051;SDS011;3567;52.444;13.556;2023-03-12T03:55:28;5.32;;;1.70;;
7051;SDS011;3567;52.444;13.556;2023-03-12T03:57:53;2.22;;;1.25;;
7051;SDS011;3567;52.444;13.556;2023-03-12T04:00:19;4.75;;;1.33;;
7051;SDS011;3567;52.444;13.556;2023-03-12T04:02:45;7.32;;;1.50;;
7051;SDS011;3567;52.444;13.556;2023-03-12T04:05:10;4.43;;;1.65;;
7051;SDS011;3567;52.444;13.556;2023-03-12T04:07:36;1.70;;;1.27;;
7051;SDS011;3567;52.444;13.556;2023-03-12T04:10:02;2.88;;;1.27;;
7051;SDS011;3567;52.444;13.556;2023-03-12T04:12:28;4.68;;;1.50;;
7051;SDS011;3567;52.444;13.556;2023-03-12T04:14:54;2.45;;;1.30;;
7051;SDS011;3567;52.444;13.556;2023-03-12T04:17:20;5.07;;;1.02;;
7051;SDS011;3567;52.444;13.556;2023-03-12T04:19:45;3.78;;;1.30;;
7051;SDS011;3567;52.444;13.556;2023-03-12T04:22:10;3.42;;;1.40;;
7051;SDS011;3567;52.444;13.556;2023-03-12T04:24:36;3.30;;;1.42;;
7051;SDS011;3567;52.444;13.556;2023-03-12T04:27:01;4.20;;;1.30;;
7051;SDS011;3567;52.444;13.556;2023-03-12T04:29:26;4.10;;;1.50;;
7051;SDS011;3567;52.444;13.556;2023-03-12T04:31:52;3.63;;;1.15;;
7051;SDS011;3567;52.444;13.556;2023-03-12T04:34:18;5.03;;;1.48;;
7051;SDS011;3567;52.444;13.556;2023-03-12T04:36:43;4.15;;;1.67;;
7051;SDS011;3567;52.444;13.556;2023-03-12T04:39:10;4.85;;;1.77;;
7051;SDS011;3567;52.444;13.556;2023-03-12T04:41:36;4.90;;;1.98;;
7051;SDS011;3567;52.444;13.556;2023-03-12T04:44:02;4.93;;;1.52;;
7051;SDS011;3567;52.444;13.556;2023-03-12T04:46:28;3.05;;;1.90;;
7051;SDS011;3567;52.444;13.556;2023-03-12T04:48:53;6.22;;;2.08;;
7051;SDS011;3567;52.444;13.556;2023-03-12T04:51:19;4.13;;;2.25;;
7051;SDS011;3567;52.444;13.556;2023-03-12T04:53:44;4.35;;;2.22;;
7051;SDS011;3567;52.444;13.556;2023-03-12T04:56:10;2.42;;;2.22;;
7051;SDS011;3567;52.444;13.556;2023-03-12T04:58:35;4.18;;;2.30;;
7051;SDS011;3567;52.444;13.556;2023-03-12T05:01:01;8.27;;;3.10;;
7051;SDS011;3567;52.444;13.556;2023-03-12T05:03:26;9.40;;;2.70;;
7051;SDS011;3567;52.444;13.556;2023-03-12T05:05:52;7.40;;;2.28;;
7051;SDS011;3567;52.444;13.556;2023-03-12T05:08:17;6.45;;;2.97;;
7051;SDS011;3567;52.444;13.556;2023-03-12T05:10:43;2.85;;;2.65;;
7051;SDS011;3567;52.444;13.556;2023-03-12T05:13:12;8.07;;;2.83;;
7051;SDS011;3567;52.444;13.556;2023-03-12T05:15:41;6.20;;;3.05;;
7051;SDS011;3567;52.444;13.556;2023-03-12T05:18:07;7.43;;;4.68;;
7051;SDS011;3567;52.444;13.556;2023-03-12T05:20:32;4.88;;;2.90;;
7051;SDS011;3567;52.444;13.556;2023-03-12T05:22:57;10.13;;;6.15;;
7051;SDS011;3567;52.444;13.556;2023-03-12T05:25:23;6.18;;;3.00;;
7051;SDS011;3567;52.444;13.556;2023-03-12T05:27:48;7.47;;;3.35;;
7051;SDS011;3567;52.444;13.556;2023-03-12T05:30:14;7.45;;;3.20;;
7051;SDS011;3567;52.444;13.556;2023-03-12T05:32:39;5.07;;;3.38;;
7051;SDS011;3567;52.444;13.556;2023-03-12T05:35:04;6.38;;;3.53;;
7051;SDS011;3567;52.444;13.556;2023-03-12T05:37:30;6.47;;;3.65;;
7051;SDS011;3567;52.444;13.556;2023-03-12T05:39:55;6.85;;;4.00;;
7051;SDS011;3567;52.444;13.556;2023-03-12T05:42:22;7.47;;;3.50;;
7051;SDS011;3567;52.444;13.556;2023-03-12T05:44:48;6.80;;;3.72;;
7051;SDS011;3567;52.444;13.556;2023-03-12T05:47:15;6.10;;;2.97;;
7051;SDS011;3567;52.444;13.556;2023-03-12T05:49:41;6.05;;;3.08;;
7051;SDS011;3567;52.444;13.556;2023-03-12T05:52:06;10.57;;;6.00;;
7051;SDS011;3567;52.444;13.556;2023-03-12T05:54:32;6.93;;;3.63;;
7051;SDS011;3567;52.444;13.556;2023-03-12T05:56:57;8.85;;;3.92;;
7051;SDS011;3567;52.444;13.556;2023-03-12T05:59:23;6.00;;;3.67;;
7051;SDS011;3567;52.444;13.556;2023-03-12T06:01:48;6.50;;;4.13;;
7051;SDS011;3567;52.444;13.556;2023-03-12T06:04:14;11.20;;;6.10;;
7051;SDS011;3567;52.444;13.556;2023-03-12T06:06:39;7.25;;;4.25;;
7051;SDS011;3567;52.444;13.556;2023-03-12T06:09:04;4.90;;;3.95;;
7051;SDS011;3567;52.444;13.556;2023-03-12T06:11:31;6.38;;;3.38;;
7051;SDS011;3567;52.444;13.556;2023-03-12T06:13:58;7.10;;;4.35;;
7051;SDS011;3567;52.444;13.556;2023-03-12T06:16:24;7.30;;;4.18;;
7051;SDS011;3567;52.444;13.556;2023-03-12T06:18:51;6.57;;;3.65;;
7051;SDS011;3567;52.444;13.556;2023-03-12T06:21:19;6.95;;;3.53;;
7051;SDS011;3567;52.444;13.556;2023-03-12T06:23:47;10.40;;;3.67;;
7051;SDS011;3567;52.444;13.556;2023-03-12T06:26:13;6.72;;;3.15;;
7051;SDS011;3567;52.444;13.556;2023-03-12T06:28:39;3.75;;;2.85;;
7051;SDS011;3567;52.444;13.556;2023-03-12T06:31:05;7.10;;;3.60;;
7051;SDS011;3567;52.444;13.556;2023-03-12T06:33:31;6.72;;;3.05;;
7051;SDS011;3567;52.444;13.556;2023-03-12T06:35:57;5.90;;;3.22;;
7051;SDS011;3567;52.444;13.556;2023-03-12T06:38:25;4.60;;;3.28;;
7051;SDS011;3567;52.444;13.556;2023-03-12T06:40:57;4.65;;;2.90;;
7051;SDS011;3567;52.444;13.556;2023-03-12T06:43:25;4.20;;;2.67;;
7051;SDS011;3567;52.444;13.556;2023-03-12T06:45:55;3.42;;;2.63;;
7051;SDS011;3567;52.444;13.556;2023-03-12T06:48:22;8.43;;;3.10;;
7051;SDS011;3567;52.444;13.556;2023-03-12T06:50:49;5.32;;;2.85;;
7051;SDS011;3567;52.444;13.556;2023-03-12T06:53:15;11.20;;;2.38;;
7051;SDS011;3567;52.444;13.556;2023-03-12T06:55:41;4.80;;;2.70;;
7051;SDS011;3567;52.444;13.556;2023-03-12T06:58:08;8.30;;;2.88;;
7051;SDS011;3567;52.444;13.556;2023-03-12T07:00:33;8.27;;;2.72;;
7051;SDS011;3567;52.444;13.556;2023-03-12T07:02:59;4.22;;;2.03;;
7051;SDS011;3567;52.444;13.556;2023-03-12T07:05:24;3.78;;;2.00;;
7051;SDS011;3567;52.444;13.556;2023-03-12T07:07:50;6.40;;;2.17;;
7051;SDS011;3567;52.444;13.556;2023-03-12T07:10:16;7.38;;;2.08;;
7051;SDS011;3567;52.444;13.556;2023-03-12T07:12:42;3.38;;;2.28;;
7051;SDS011;3567;52.444;13.556;2023-03-12T07:15:07;3.13;;;2.05;;
7051;SDS011;3567;52.444;13.556;2023-03-12T07:17:33;5.32;;;1.98;;
7051;SDS011;3567;52.444;13.556;2023-03-12T07:19:58;4.22;;;2.17;;
7051;SDS011;3567;52.444;13.556;2023-03-12T07:22:24;6.55;;;2.22;;
7051;SDS011;3567;52.444;13.556;2023-03-12T07:24:49;2.08;;;1.75;;
7051;SDS011;3567;52.444;13.556;2023-03-12T07:27:15;3.72;;;2.00;;
7051;SDS011;3567;52.444;13.556;2023-03-12T07:29:41;4.03;;;1.80;;
7051;SDS011;3567;52.444;13.556;2023-03-12T07:32:07;5.10;;;1.65;;
7051;SDS011;3567;52.444;13.556;2023-03-12T07:34:32;9.35;;;2.10;;
7051;SDS011;3567;52.444;13.556;2023-03-12T07:36:58;7.63;;;2.13;;
7051;SDS011;3567;52.444;13.556;2023-03-12T07:39:24;5.25;;;1.98;;
7051;SDS011;3567;52.444;13.556;2023-03-12T07:41:49;3.22;;;2.28;;
7051;SDS011;3567;52.444;13.556;2023-03-12T07:44:14;2.78;;;1.98;;
7051;SDS011;3567;52.444;13.556;2023-03-12T07:46:40;5.82;;;1.80;;
7051;SDS011;3567;52.444;13.556;2023-03-12T07:49:05;3.25;;;1.77;;
7051;SDS011;3567;52.444;13.556;2023-03-12T07:51:31;6.57;;;2.35;;
7051;SDS011;3567;52.444;13.556;2023-03-12T07:53:56;8.13;;;2.20;;
7051;SDS011;3567;52.444;13.556;2023-03-12T07:56:21;4.50;;;2.63;;
7051;SDS011;3567;52.444;13.556;2023-03-12T07:58:47;5.35;;;1.92;;
7051;SDS011;3567;52.444;13.556;2023-03-12T08:01:12;1.92;;;1.50;;
7051;SDS011;3567;52.444;13.556;2023-03-12T08:03:38;4.40;;;1.90;;
7051;SDS011;3567;52.444;13.556;2023-03-12T08:06:04;6.28;;;1.95;;
7051;SDS011;3567;52.444;13.556;2023-03-12T08:08:30;5.22;;;1.98;;
7051;SDS011;3567;52.444;13.556;2023-03-12T08:10:56;3.00;;;1.65;;
7051;SDS011;3567;52.444;13.556;2023-03-12T08:13:22;4.65;;;1.17;;
7051;SDS011;3567;52.444;13.556;2023-03-12T08:15:49;6.57;;;2.20;;
7051;SDS011;3567;52.444;13.556;2023-03-12T08:18:16;4.38;;;1.80;;
7051;SDS011;3567;52.444;13.556;2023-03-12T08:20:41;3.17;;;1.48;;
7051;SDS011;3567;52.444;13.556;2023-03-12T08:23:07;5.53;;;1.92;;
7051;SDS011;3567;52.444;13.556;2023-03-12T08:25:33;4.15;;;1.73;;
7051;SDS011;3567;52.444;13.556;2023-03-12T08:28:00;3.35;;;2.08;;
7051;SDS011;3567;52.444;13.556;2023-03-12T08:30:27;2.55;;;1.35;;
7051;SDS011;3567;52.444;13.556;2023-03-12T08:32:53;3.10;;;1.63;;
7051;SDS011;3567;52.444;13.556;2023-03-12T08:35:19;4.30;;;1.88;;
7051;SDS011;3567;52.444;13.556;2023-03-12T08:37:44;3.10;;;1.85;;
7051;SDS011;3567;52.444;13.556;2023-03-12T08:40:10;5.15;;;2.88;;
7051;SDS011;3567;52.444;13.556;2023-03-12T08:42:37;5.10;;;1.73;;
7051;SDS011;3567;52.444;13.556;2023-03-12T08:45:04;4.22;;;1.73;;
7051;SDS011;3567;52.444;13.556;2023-03-12T08:47:29;6.63;;;2.08;;
7051;SDS011;3567;52.444;13.556;2023-03-12T08:49:55;2.95;;;1.63;;
7051;SDS011;3567;52.444;13.556;2023-03-12T08:52:20;6.78;;;2.10;;
7051;SDS011;3567;52.444;13.556;2023-03-12T08:54:45;6.35;;;2.28;;
7051;SDS011;3567;52.444;13.556;2023-03-12T08:57:11;8.48;;;2.97;;
7051;SDS011;3567;52.444;13.556;2023-03-12T08:59:36;3.10;;;1.58;;
7051;SDS011;3567;52.444;13.556;2023-03-12T09:02:02;7.30;;;2.20;;
7051;SDS011;3567;52.444;13.556;2023-03-12T09:04:27;5.80;;;2.25;;
7051;SDS011;3567;52.444;13.556;2023-03-12T09:06:52;3.10;;;1.73;;
7051;SDS011;3567;52.444;13.556;2023-03-12T09:09:18;6.85;;;2.03;;
7051;SDS011;3567;52.444;13.556;2023-03-12T09:11:43;6.22;;;1.83;;
7051;SDS011;3567;52.444;13.556;2023-03-12T09:14:09;2.78;;;1.20;;
7051;SDS011;3567;52.444;13.556;2023-03-12T09:16:34;13.10;;;1.85;;
7051;SDS011;3567;52.444;13.556;2023-03-12T09:19:00;1.85;;;0.90;;
7051;SDS011;3567;52.444;13.556;2023-03-12T09:21:25;1.88;;;1.33;;
7051;SDS011;3567;52.444;13.556;2023-03-12T09:23:51;4.40;;;1.80;;
7051;SDS011;3567;52.444;13.556;2023-03-12T09:26:16;0.90;;;0.90;;
7051;SDS011;3567;52.444;13.556;2023-03-12T09:28:41;3.28;;;1.48;;
7051;SDS011;3567;52.444;13.556;2023-03-12T09:31:08;5.05;;;1.20;;
7051;SDS011;3567;52.444;13.556;2023-03-12T09:33:34;2.53;;;0.95;;
7051;SDS011;3567;52.444;13.556;2023-03-12T09:36:00;2.60;;;1.13;;
7051;SDS011;3567;52.444;13.556;2023-03-12T09:38:26;2.65;;;1.15;;
7051;SDS011;3567;52.444;13.556;2023-03-12T09:40:52;6.05;;;1.52;;
7051;SDS011;3567;52.444;13.556;2023-03-12T09:43:23;3.97;;;0.93;;
7051;SDS011;3567;52.444;13.556;2023-03-12T09:45:54;4.22;;;0.63;;
7051;SDS011;3567;52.444;13.556;2023-03-12T09:48:33;0.90;;;0.80;;
7051;SDS011;3567;52.444;13.556;2023-03-12T09:51:01;3.97;;;0.73;;
7051;SDS011;3567;52.444;13.556;2023-03-12T09:53:52;5.30;;;1.02;;
7051;SDS011;3567;52.444;13.556;2023-03-12T09:56:21;3.53;;;1.00;;
7051;SDS011;3567;52.444;13.556;2023-03-12T09:58:47;5.68;;;0.93;;
7051;SDS011;3567;52.444;13.556;2023-03-12T10:06:55;2.25;;;0.88;;
7051;SDS011;3567;52.444;13.556;2023-03-12T10:15:27;3.97;;;1.05;;
7051;SDS011;3567;52.444;13.556;2023-03-12T10:20:45;3.80;;;2.25;;
7051;SDS011;3567;52.444;13.556;2023-03-12T10:23:33;1.60;;;1.15;;
7051;SDS011;3567;52.444;13.556;2023-03-12T10:26:06;5.93;;;0.85;;
7051;SDS011;3567;52.444;13.556;2023-03-12T10:31:22;3.53;;;1.15;;
7051;SDS011;3567;52.444;13.556;2023-03-12T10:33:57;1.67;;;0.85;;
7051;SDS011;3567;52.444;13.556;2023-03-12T10:36:26;3.08;;;0.73;;
7051;SDS011;3567;52.444;13.556;2023-03-12T10:39:03;3.13;;;0.70;;
7051;SDS011;3567;52.444;13.556;2023-03-12T10:41:30;5.43;;;0.70;;
7051;SDS011;3567;52.444;13.556;2023-03-12T10:43:57;6.57;;;0.93;;
7051;SDS011;3567;52.444;13.556;2023-03-12T10:46:31;1.55;;;0.70;;
7051;SDS011;3567;52.444;13.556;2023-03-12T10:51:57;4.10;;;0.57;;
7051;SDS011;3567;52.444;13.556;2023-03-12T10:54:38;1.35;;;0.73;;
7051;SDS011;3567;52.444;13.556;2023-03-12T10:57:05;4.53;;;0.50;;
7051;SDS011;3567;52.444;13.556;2023-03-12T10:59:35;4.75;;;0.80;;
7051;SDS011;3567;52.444;13.556;2023-03-12T11:02:22;3.83;;;0.88;;
7051;SDS011;3567;52.444;13.556;2023-03-12T11:04:51;4.20;;;1.00;;
7051;SDS011;3567;52.444;13.556;2023-03-12T11:12:31;2.38;;;0.88;;
7051;SDS011;3567;52.444;13.556;2023-03-12T11:14:59;3.80;;;0.88;;
7051;SDS011;3567;52.444;13.556;2023-03-12T11:23:33;3.88;;;1.00;;
7051;SDS011;3567;52.444;13.556;2023-03-12T11:26:01;4.20;;;1.52;;
7051;SDS011;3567;52.444;13.556;2023-03-12T11:28:33;8.23;;;1.45;;
7051;SDS011;3567;52.444;13.556;2023-03-12T11:31:26;5.22;;;1.90;;
7051;SDS011;3567;52.444;13.556;2023-03-12T11:33:56;7.38;;;2.13;;
7051;SDS011;3567;52.444;13.556;2023-03-12T11:36:31;3.42;;;1.48;;
7051;SDS011;3567;52.444;13.556;2023-03-12T11:41:34;6.60;;;1.50;;
7051;SDS011;3567;52.444;13.556;2023-03-12T11:49:49;1.92;;;1.23;;
7051;SDS011;3567;52.444;13.556;2023-03-12T11:52:22;2.95;;;1.30;;
7051;SDS011;3567;52.444;13.556;2023-03-12T12:00:30;9.20;;;2.88;;
7051;SDS011;3567;52.444;13.556;2023-03-12T12:20:16;4.55;;;1.85;;
7051;SDS011;3567;52.444;13.556;2023-03-12T12:25:55;3.25;;;1.33;;
7051;SDS011;3567;52.444;13.556;2023-03-12T12:34:14;3.55;;;2.50;;
7051;SDS011;3567;52.444;13.556;2023-03-12T12:37:47;2.83;;;1.50;;
7051;SDS011;3567;52.444;13.556;2023-03-12T12:43:20;3.90;;;1.40;;
7051;SDS011;3567;52.444;13.556;2023-03-12T12:45:43;4.03;;;1.27;;
7051;SDS011;3567;52.444;13.556;2023-03-12T12:50:50;4.63;;;1.63;;
7051;SDS011;3567;52.444;13.556;2023-03-12T12:53:22;4.45;;;1.80;;
7051;SDS011;3567;52.444;13.556;2023-03-12T12:58:44;2.80;;;1.20;;
7051;SDS011;3567;52.444;13.556;2023-03-12T13:01:09;1.85;;;1.58;;
7051;SDS011;3567;52.444;13.556;2023-03-12T13:03:36;2.85;;;1.88;;
7051;SDS011;3567;52.444;13.556;2023-03-12T13:06:03;2.33;;;1.40;;
7051;SDS011;3567;52.444;13.556;2023-03-12T13:11:05;5.03;;;1.25;;
7051;SDS011;3567;52.444;13.556;2023-03-12T13:13:49;3.20;;;1.08;;
7051;SDS011;3567;52.444;13.556;2023-03-12T13:16:39;1.95;;;1.23;;
7051;SDS011;3567;52.444;13.556;2023-03-12T13:21:38;0.90;;;0.90;;
7051;SDS011;3567;52.444;13.556;2023-03-12T13:26:48;14.15;;;5.18;;
7051;SDS011;3567;52.444;13.556;2023-03-12T13:29:19;34.50;;;16.10;;
7051;SDS011;3567;52.444;13.556;2023-03-12T13:32:00;23.20;;;10.00;;
7051;SDS011;3567;52.444;13.556;2023-03-12T13:36:52;6.93;;;3.55;;
7051;SDS011;3567;52.444;13.556;2023-03-12T13:39:33;2.05;;;1.50;;
7051;SDS011;3567;52.444;13.556;2023-03-12T13:42:00;3.67;;;2.15;;
7051;SDS011;3567;52.444;13.556;2023-03-12T13:44:44;3.00;;;2.42;;
7051;SDS011;3567;52.444;13.556;2023-03-12T13:55:05;2.40;;;1.10;;
7051;SDS011;3567;52.444;13.556;2023-03-12T13:57:38;2.17;;;0.80;;
7051;SDS011;3567;52.444;13.556;2023-03-12T14:00:15;1.20;;;1.05;;
7051;SDS011;3567;52.444;13.556;2023-03-12T14:02:46;1.38;;;0.70;;
7051;SDS011;3567;52.444;13.556;2023-03-12T14:05:15;3.55;;;0.80;;
7051;SDS011;3567;52.444;13.556;2023-03-12T14:07:46;1.23;;;1.13;;
7051;SDS011;3567;52.444;13.556;2023-03-12T14:10:21;6.68;;;1.05;;
7051;SDS011;3567;52.444;13.556;2023-03-12T14:15:54;1.90;;;0.95;;
7051;SDS011;3567;52.444;13.556;2023-03-12T14:18:30;2.42;;;0.70;;
7051;SDS011;3567;52.444;13.556;2023-03-12T14:21:00;1.45;;;0.70;;
7051;SDS011;3567;52.444;13.556;2023-03-12T14:23:33;4.05;;;0.75;;
7051;SDS011;3567;52.444;13.556;2023-03-12T14:26:18;0.85;;;0.70;;
7051;SDS011;3567;52.444;13.556;2023-03-12T14:28:51;1.52;;;0.32;;
7051;SDS011;3567;52.444;13.556;2023-03-12T14:31:21;0.80;;;0.80;;
7051;SDS011;3567;52.444;13.556;2023-03-12T14:34:08;1.42;;;0.80;;
7051;SDS011;3567;52.444;13.556;2023-03-12T14:36:46;1.80;;;0.52;;
7051;SDS011;3567;52.444;13.556;2023-03-12T14:42:06;5.50;;;0.70;;
7051;SDS011;3567;52.444;13.556;2023-03-12T14:44:33;3.17;;;0.73;;
7051;SDS011;3567;52.444;13.556;2023-03-12T14:47:07;0.50;;;0.40;;
7051;SDS011;3567;52.444;13.556;2023-03-12T14:49:42;0.93;;;0.55;;
7051;SDS011;3567;52.444;13.556;2023-03-12T14:52:28;4.00;;;0.65;;
7051;SDS011;3567;52.444;13.556;2023-03-12T14:54:58;1.15;;;0.70;;
7051;SDS011;3567;52.444;13.556;2023-03-12T14:57:25;1.95;;;1.13;;
7051;SDS011;3567;52.444;13.556;2023-03-12T15:00:04;5.93;;;0.70;;
7051;SDS011;3567;52.444;13.556;2023-03-12T15:02:38;3.70;;;0.95;;
7051;SDS011;3567;52.444;13.556;2023-03-12T15:05:13;4.43;;;2.47;;
7051;SDS011;3567;52.444;13.556;2023-03-12T15:07:42;1.15;;;0.95;;
7051;SDS011;3567;52.444;13.556;2023-03-12T15:13:05;4.90;;;2.20;;
7051;SDS011;3567;52.444;13.556;2023-03-12T15:15:43;4.80;;;2.08;;
7051;SDS011;3567;52.444;13.556;2023-03-12T15:18:22;8.50;;;4.00;;
7051;SDS011;3567;52.444;13.556;2023-03-12T15:20:53;3.85;;;1.33;;
7051;SDS011;3567;52.444;13.556;2023-03-12T15:23:21;1.00;;;0.75;;
7051;SDS011;3567;52.444;13.556;2023-03-12T15:26:11;4.35;;;2.00;;
7051;SDS011;3567;52.444;13.556;2023-03-12T15:28:55;3.42;;;1.17;;
7051;SDS011;3567;52.444;13.556;2023-03-12T15:31:24;4.22;;;1.15;;
7051;SDS011;3567;52.444;13.556;2023-03-12T15:34:00;1.15;;;0.90;;
7051;SDS011;3567;52.444;13.556;2023-03-12T15:36:28;2.92;;;1.10;;
7051;SDS011;3567;52.444;13.556;2023-03-12T15:38:59;4.32;;;1.75;;
7051;SDS011;3567;52.444;13.556;2023-03-12T15:41:42;3.53;;;1.27;;
7051;SDS011;3567;52.444;13.556;2023-03-12T15:46:47;2.40;;;1.38;;
7051;SDS011;3567;52.444;13.556;2023-03-12T15:49:20;1.30;;;1.17;;
7051;SDS011;3567;52.444;13.556;2023-03-12T15:51:58;1.65;;;1.40;;
7051;SDS011;3567;52.444;13.556;2023-03-12T15:54:24;1.80;;;1.30;;
7051;SDS011;3567;52.444;13.556;2023-03-12T15:56:51;3.40;;;1.80;;
7051;SDS011;3567;52.444;13.556;2023-03-12T16:01:58;4.15;;;1.67;;
7051;SDS011;3567;52.444;13.556;2023-03-12T16:04:24;3.42;;;1.90;;
7051;SDS011;3567;52.444;13.556;2023-03-12T16:06:49;4.63;;;1.45;;
7051;SDS011;3567;52.444;13.556;2023-03-12T16:09:18;3.63;;;1.70;;
7051;SDS011;3567;52.444;13.556;2023-03-12T16:11:50;3.15;;;1.83;;
7051;SDS011;3567;52.444;13.556;2023-03-12T16:14:21;2.78;;;2.00;;
7051;SDS011;3567;52.444;13.556;2023-03-12T16:16:58;8.98;;;4.25;;
7051;SDS011;3567;52.444;13.556;2023-03-12T16:19:25;10.10;;;5.03;;
7051;SDS011;3567;52.444;13.556;2023-03-12T16:21:52;6.63;;;3.50;;
7051;SDS011;3567;52.444;13.556;2023-03-12T16:24:17;11.57;;;4.88;;
7051;SDS011;3567;52.444;13.556;2023-03-12T16:26:45;4.63;;;2.97;;
7051;SDS011;3567;52.444;13.556;2023-03-12T16:29:13;12.38;;;5.35;;
7051;SDS011;3567;52.444;13.556;2023-03-12T16:31:41;21.02;;;9.23;;
7051;SDS011;3567;52.444;13.556;2023-03-12T16:34:08;7.55;;;3.00;;
7051;SDS011;3567;52.444;13.556;2023-03-12T16:36:35;3.38;;;2.67;;
7051;SDS011;3567;52.444;13.556;2023-03-12T16:39:00;5.35;;;3.05;;
7051;SDS011;3567;52.444;13.556;2023-03-12T16:41:26;6.00;;;2.97;;
7051;SDS011;3567;52.444;13.556;2023-03-12T16:43:52;3.20;;;2.38;;
7051;SDS011;3567;52.444;13.556;2023-03-12T16:46:19;3.13;;;2.42;;
7051;SDS011;3567;52.444;13.556;2023-03-12T16:48:49;8.65;;;2.13;;
7051;SDS011;3567;52.444;13.556;2023-03-12T16:51:17;4.43;;;2.33;;
7051;SDS011;3567;52.444;13.556;2023-03-12T16:53:43;4.07;;;1.92;;
7051;SDS011;3567;52.444;13.556;2023-03-12T16:56:13;8.95;;;4.35;;
7051;SDS011;3567;52.444;13.556;2023-03-12T16:58:44;6.07;;;2.40;;
7051;SDS011;3567;52.444;13.556;2023-03-12T17:01:11;5.03;;;2.50;;
7051;SDS011;3567;52.444;13.556;2023-03-12T17:03:38;4.43;;;2.67;;
7051;SDS011;3567;52.444;13.556;2023-03-12T17:06:10;4.05;;;3.17;;
7051;SDS011;3567;52.444;13.556;2023-03-12T17:08:38;6.88;;;4.05;;
7051;SDS011;3567;52.444;13.556;2023-03-12T17:11:11;7.45;;;2.83;;
7051;SDS011;3567;52.444;13.556;2023-03-12T17:13:40;4.38;;;2.85;;